createdAt,value
2018-09-03T00:00:35.865Z,4.97
2018-09-03T00:03:03.270Z,5.10
2018-09-03T00:05:30.673Z,4.77
2018-09-03T00:07:58.101Z,5.67
2018-09-03T00:10:25.499Z,4.63
2018-09-03T00:12:52.924Z,4.40
2018-09-03T00:15:20.350Z,4.97
2018-09-03T00:17:47.747Z,5.00
2018-09-03T00:20:15.151Z,5.13
2018-09-03T00:22:42.585Z,4.97
2018-09-03T00:25:10.002Z,4.47
2018-09-03T00:27:37.404Z,5.27
2018-09-03T00:30:04.832Z,4.73
2018-09-03T00:32:41.234Z,5.33
2018-09-03T00:35:17.934Z,5.63
2018-09-03T00:37:45.332Z,5.57
2018-09-03T00:40:18.279Z,4.87
2018-09-03T00:42:45.700Z,4.50
2018-09-03T00:45:31.292Z,4.87
2018-09-03T00:47:58.709Z,5.40
2018-09-03T00:50:26.120Z,5.07
2018-09-03T00:52:53.539Z,5.23
2018-09-03T00:55:20.963Z,5.20
2018-09-03T00:57:48.384Z,5.80
2018-09-03T01:00:15.816Z,5.33
2018-09-03T01:02:43.250Z,4.97
2018-09-03T01:05:10.675Z,4.80
2018-09-03T01:07:38.090Z,5.10
2018-09-03T01:10:05.514Z,4.97
2018-09-03T01:12:32.905Z,5.27
2018-09-03T01:15:00.337Z,5.03
2018-09-03T01:17:27.729Z,5.23
2018-09-03T01:19:55.155Z,4.77
2018-09-03T01:22:22.567Z,4.63
2018-09-03T01:24:49.992Z,5.00
2018-09-03T01:27:17.419Z,4.90
2018-09-03T01:29:44.900Z,5.60
2018-09-03T01:32:12.254Z,5.37
2018-09-03T01:34:39.651Z,4.97
2018-09-03T01:37:07.097Z,4.83
2018-09-03T01:39:34.497Z,4.70
2018-09-03T01:42:01.916Z,5.23
2018-09-03T01:44:29.321Z,4.90
2018-09-03T01:46:56.734Z,4.43
2018-09-03T01:49:24.137Z,4.93
2018-09-03T01:51:51.584Z,4.90
2018-09-03T01:54:18.991Z,4.60
2018-09-03T01:56:46.406Z,5.00
2018-09-03T01:59:13.811Z,4.67
2018-09-03T02:01:41.243Z,5.10
2018-09-03T02:04:08.634Z,5.37
2018-09-03T02:06:36.076Z,5.30
2018-09-03T02:09:03.461Z,4.90
2018-09-03T02:11:30.929Z,5.20
2018-09-03T02:13:58.288Z,4.57
2018-09-03T02:16:25.720Z,5.20
2018-09-03T02:18:54.302Z,4.80
2018-09-03T02:21:20.543Z,5.37
2018-09-03T02:23:47.945Z,5.10
2018-09-03T02:26:15.369Z,5.70
2018-09-03T02:28:42.783Z,5.63
2018-09-03T02:31:10.213Z,5.73
2018-09-03T02:33:37.660Z,6.03
2018-09-03T02:36:05.027Z,6.17
2018-09-03T02:38:32.467Z,6.70
2018-09-03T02:40:59.859Z,6.97
2018-09-03T02:43:27.292Z,8.10
2018-09-03T02:45:54.698Z,7.67
2018-09-03T02:48:22.122Z,10.10
2018-09-03T02:50:49.541Z,10.80
2018-09-03T02:53:16.963Z,11.50
2018-09-03T02:55:44.398Z,11.33
2018-09-03T02:58:11.815Z,11.67
2018-09-03T03:00:39.247Z,12.50
2018-09-03T03:03:06.683Z,11.57
2018-09-03T03:05:34.111Z,11.97
2018-09-03T03:08:01.516Z,12.33
2018-09-03T03:10:28.943Z,12.40
2018-09-03T03:12:56.358Z,12.67
2018-09-03T03:15:23.833Z,11.90
2018-09-03T03:17:51.199Z,11.77
2018-09-03T03:20:18.638Z,12.73
2018-09-03T03:22:46.050Z,11.73
2018-09-03T03:25:13.476Z,11.50
2018-09-03T03:27:40.897Z,12.27
2018-09-03T03:30:08.365Z,11.73
2018-09-03T03:32:35.771Z,11.50
2018-09-03T03:35:03.191Z,11.60
2018-09-03T03:37:30.619Z,11.60
2018-09-03T03:39:58.033Z,10.73
2018-09-03T03:42:25.455Z,12.23
2018-09-03T03:44:52.861Z,10.37
2018-09-03T03:47:20.297Z,11.33
2018-09-03T03:49:47.731Z,11.40
2018-09-03T03:52:15.173Z,10.57
2018-09-03T03:54:42.590Z,10.13
2018-09-03T03:57:09.992Z,10.57
2018-09-03T03:59:37.424Z,10.87
2018-09-03T04:02:04.899Z,10.47
2018-09-03T04:04:32.275Z,9.90
2018-09-03T04:06:59.709Z,10.53
2018-09-03T04:09:27.148Z,9.13
2018-09-03T04:11:54.563Z,10.57
2018-09-03T04:14:21.989Z,10.20
2018-09-03T04:16:49.426Z,9.57
2018-09-03T04:19:16.824Z,10.20
2018-09-03T04:21:44.254Z,10.00
2018-09-03T04:24:11.670Z,9.33
2018-09-03T04:26:39.068Z,9.60
2018-09-03T04:29:06.489Z,9.30
2018-09-03T04:31:33.888Z,8.67
2018-09-03T04:34:01.314Z,10.03
2018-09-03T04:36:28.721Z,9.63
2018-09-03T04:38:56.156Z,10.47
2018-09-03T04:41:23.565Z,10.80
2018-09-03T04:43:51.004Z,10.27
2018-09-03T04:46:18.417Z,9.50
2018-09-03T04:48:45.860Z,8.97
2018-09-03T04:51:13.264Z,9.90
2018-09-03T04:53:40.684Z,11.60
2018-09-03T04:56:08.115Z,11.60
2018-09-03T04:58:35.531Z,10.67
2018-09-03T05:01:02.975Z,10.37
2018-09-03T05:03:30.377Z,10.53
2018-09-03T05:05:57.834Z,10.13
2018-09-03T05:08:25.219Z,9.70
2018-09-03T05:10:52.655Z,10.47
2018-09-03T05:13:20.066Z,10.33
2018-09-03T05:15:47.500Z,9.00
2018-09-03T05:18:14.914Z,10.00
2018-09-03T05:20:42.328Z,10.27
2018-09-03T05:23:09.737Z,10.13
2018-09-03T05:25:37.171Z,10.57
2018-09-03T05:28:04.582Z,10.00
2018-09-03T05:30:32.007Z,10.30
2018-09-03T05:32:59.417Z,10.47
2018-09-03T05:35:26.852Z,13.20
2018-09-03T05:37:54.268Z,15.48
2018-09-03T05:40:21.715Z,14.33
2018-09-03T05:42:49.126Z,15.17
2018-09-03T05:45:16.539Z,16.03
2018-09-03T05:47:43.973Z,13.77
2018-09-03T05:50:11.422Z,13.03
2018-09-03T05:52:38.821Z,14.23
2018-09-03T05:55:06.228Z,13.67
2018-09-03T05:57:33.655Z,14.40
2018-09-03T06:00:01.064Z,12.93
2018-09-03T06:02:28.494Z,12.63
2018-09-03T06:04:55.985Z,12.43
2018-09-03T06:07:23.328Z,13.47
2018-09-03T06:09:50.736Z,12.30
2018-09-03T06:12:18.172Z,13.03
2018-09-03T06:14:45.578Z,12.87
2018-09-03T06:17:13.040Z,12.23
2018-09-03T06:19:40.506Z,13.47
2018-09-03T06:22:07.964Z,12.43
2018-09-03T06:24:35.378Z,12.23
2018-09-03T06:27:02.815Z,12.10
2018-09-03T06:29:30.222Z,14.00
2018-09-03T06:31:57.663Z,12.83
2018-09-03T06:34:25.066Z,12.83
2018-09-03T06:36:52.481Z,14.20
2018-09-03T06:39:19.947Z,12.97
2018-09-03T06:41:47.326Z,14.40
2018-09-03T06:44:14.764Z,14.37
2018-09-03T06:46:42.213Z,13.10
2018-09-03T06:49:09.667Z,13.57
2018-09-03T06:51:37.078Z,14.47
2018-09-03T06:54:04.511Z,15.80
2018-09-03T06:56:31.937Z,15.23
2018-09-03T06:58:59.338Z,14.23
2018-09-03T07:01:26.781Z,13.40
2018-09-03T07:03:54.214Z,15.10
2018-09-03T07:06:21.651Z,15.00
2018-09-03T07:08:49.060Z,16.70
2018-09-03T07:11:16.482Z,14.10
2018-09-03T07:13:44.049Z,15.70
2018-09-03T07:16:11.504Z,17.27
2018-09-03T07:18:38.986Z,16.10
2018-09-03T07:21:06.370Z,15.80
2018-09-03T07:23:33.812Z,16.67
2018-09-03T07:26:01.219Z,15.50
2018-09-03T07:28:28.633Z,17.40
2018-09-03T07:30:56.052Z,16.30
2018-09-03T07:33:23.481Z,16.43
2018-09-03T07:35:50.900Z,15.57
2018-09-03T07:38:18.358Z,15.63
2018-09-03T07:40:45.765Z,14.70
2018-09-03T07:43:13.205Z,15.60
2018-09-03T07:45:40.642Z,16.40
2018-09-03T07:48:08.099Z,13.60
2018-09-03T07:50:35.528Z,14.73
2018-09-03T07:53:02.948Z,15.63
2018-09-03T07:55:30.380Z,16.90
2018-09-03T07:57:57.792Z,13.97
2018-09-03T08:00:25.245Z,12.93
2018-09-03T08:02:52.645Z,13.93
2018-09-03T08:05:20.110Z,15.07
2018-09-03T08:07:47.519Z,14.80
2018-09-03T08:10:14.953Z,14.93
2018-09-03T08:12:42.375Z,14.73
2018-09-03T08:15:09.805Z,12.83
2018-09-03T08:17:37.270Z,12.50
2018-09-03T08:20:04.754Z,14.57
2018-09-03T08:22:32.092Z,14.50
2018-09-03T08:24:59.521Z,13.70
2018-09-03T08:27:26.937Z,13.13
2018-09-03T08:29:54.369Z,12.93
2018-09-03T08:32:21.810Z,13.83
2018-09-03T08:34:49.215Z,14.07
2018-09-03T08:37:16.635Z,13.10
2018-09-03T08:39:46.978Z,12.87
2018-09-03T08:42:14.343Z,13.10
2018-09-03T08:44:41.798Z,11.87
2018-09-03T08:47:09.228Z,13.40
2018-09-03T08:49:36.642Z,12.13
2018-09-03T08:52:04.092Z,12.60
2018-09-03T08:54:31.500Z,10.90
2018-09-03T08:56:58.939Z,12.67
2018-09-03T08:59:26.348Z,12.50
2018-09-03T09:01:53.780Z,13.37
2018-09-03T09:04:21.200Z,14.23
2018-09-03T09:06:48.599Z,14.60
2018-09-03T09:09:16.046Z,14.00
2018-09-03T09:11:43.611Z,13.10
2018-09-03T09:14:11.005Z,11.60
2018-09-03T09:16:38.441Z,13.63
2018-09-03T09:19:05.895Z,13.30
2018-09-03T09:21:33.365Z,13.30
2018-09-03T09:24:00.783Z,13.47
2018-09-03T09:26:28.207Z,12.70
2018-09-03T09:28:55.680Z,12.23
2018-09-03T09:31:23.066Z,11.77
2018-09-03T09:33:50.516Z,12.23
2018-09-03T09:36:18.000Z,11.67
2018-09-03T09:38:45.445Z,11.73
2018-09-03T09:41:12.894Z,12.77
2018-09-03T09:43:40.336Z,14.23
2018-09-03T09:46:07.750Z,13.80
2018-09-03T09:48:35.213Z,13.30
2018-09-03T09:51:02.613Z,12.87
2018-09-03T09:53:30.029Z,12.73
2018-09-03T09:55:57.481Z,12.77
2018-09-03T09:58:24.913Z,11.00
2018-09-03T10:00:52.317Z,13.13
2018-09-03T10:03:39.391Z,11.63
2018-09-03T10:06:06.816Z,10.70
2018-09-03T10:08:34.334Z,11.27
2018-09-03T10:11:01.792Z,13.30
2018-09-03T10:13:29.204Z,13.50
2018-09-03T10:15:56.639Z,11.50
2018-09-03T10:18:24.054Z,11.40
2018-09-03T10:20:51.505Z,13.93
2018-09-03T10:23:18.995Z,13.57
2018-09-03T10:25:49.232Z,12.27
2018-09-03T10:28:16.638Z,10.27
2018-09-03T10:30:44.138Z,10.10
2018-09-03T10:33:11.566Z,8.77
2018-09-03T10:35:39.009Z,7.77
2018-09-03T10:38:06.455Z,8.37
2018-09-03T10:40:33.828Z,9.33
2018-09-03T10:43:01.267Z,9.73
2018-09-03T10:45:28.725Z,10.13
2018-09-03T10:47:56.163Z,9.37
2018-09-03T10:50:23.592Z,10.70
2018-09-03T10:52:51.027Z,8.90
2018-09-03T10:55:18.460Z,11.13
2018-09-03T10:57:45.936Z,11.63
2018-09-03T11:00:13.339Z,10.53
2018-09-03T11:02:40.766Z,11.57
2018-09-03T11:05:08.204Z,12.10
2018-09-03T11:07:35.652Z,11.20
2018-09-03T11:10:03.097Z,11.67
2018-09-03T11:12:30.553Z,11.27
2018-09-03T11:14:57.987Z,10.23
2018-09-03T11:17:25.418Z,11.43
2018-09-03T11:19:52.841Z,12.17
2018-09-03T11:22:20.306Z,11.70
2018-09-03T11:24:47.693Z,10.80
2018-09-03T11:27:15.099Z,9.50
2018-09-03T11:29:42.519Z,9.53
2018-09-03T11:32:09.964Z,8.40
2018-09-03T11:34:37.435Z,10.57
2018-09-03T11:37:04.873Z,10.47
2018-09-03T11:39:32.306Z,11.23
2018-09-03T11:41:59.735Z,10.57
2018-09-03T11:44:27.162Z,12.00
2018-09-03T11:46:54.584Z,11.27
2018-09-03T11:49:22.041Z,10.00
2018-09-03T11:51:49.438Z,10.77
2018-09-03T11:54:16.856Z,11.47
2018-09-03T11:56:44.295Z,10.80
2018-09-03T11:59:11.703Z,11.23
2018-09-03T12:01:39.159Z,11.57
2018-09-03T12:04:06.595Z,10.30
2018-09-03T12:06:34.065Z,10.90
2018-09-03T12:09:01.492Z,11.27
2018-09-03T12:11:28.929Z,11.87
2018-09-03T12:13:56.346Z,11.40
2018-09-03T12:16:23.853Z,11.80
2018-09-03T12:18:51.270Z,13.03
2018-09-03T12:21:18.685Z,11.23
2018-09-03T12:23:46.217Z,11.07
2018-09-03T12:26:13.704Z,12.97
2018-09-03T12:28:41.145Z,13.40
2018-09-03T12:31:08.591Z,12.27
2018-09-03T12:33:35.987Z,14.00
2018-09-03T12:36:03.405Z,13.23
2018-09-03T12:38:30.851Z,14.03
2018-09-03T12:40:58.258Z,13.17
2018-09-03T12:43:25.720Z,13.93
2018-09-03T12:45:53.135Z,14.37
2018-09-03T12:48:20.584Z,12.67
2018-09-03T12:50:48.025Z,13.47
2018-09-03T12:53:15.465Z,13.10
2018-09-03T12:55:42.895Z,13.27
2018-09-03T12:58:10.334Z,12.83
2018-09-03T13:00:38.672Z,14.47
2018-09-03T13:03:05.228Z,13.97
2018-09-03T13:05:32.589Z,13.20
2018-09-03T13:08:00.033Z,13.17
2018-09-03T13:10:27.445Z,12.37
2018-09-03T13:12:54.866Z,13.43
2018-09-03T13:15:22.314Z,14.75
2018-09-03T13:17:49.761Z,15.23
2018-09-03T13:20:17.203Z,13.40
2018-09-03T13:22:44.612Z,14.10
2018-09-03T13:25:12.037Z,13.20
2018-09-03T13:27:39.486Z,13.87
2018-09-03T13:30:07.860Z,13.37
2018-09-03T13:32:35.338Z,13.93
2018-09-03T13:35:02.740Z,14.30
2018-09-03T13:37:30.164Z,14.17
2018-09-03T13:39:57.601Z,13.00
2018-09-03T13:42:25.063Z,13.27
2018-09-03T13:44:52.487Z,12.33
2018-09-03T13:47:19.918Z,13.10
2018-09-03T13:49:47.410Z,13.10
2018-09-03T13:52:14.839Z,13.30
2018-09-03T13:54:42.257Z,14.30
2018-09-03T13:57:09.694Z,13.73
2018-09-03T13:59:37.120Z,12.83
2018-09-03T14:02:04.559Z,12.83
2018-09-03T14:04:31.971Z,12.30
2018-09-03T14:06:59.424Z,13.37
2018-09-03T14:09:26.834Z,13.73
2018-09-03T14:11:54.231Z,13.20
2018-09-03T14:14:21.682Z,12.70
2018-09-03T14:16:49.111Z,11.80
2018-09-03T14:19:16.546Z,13.07
2018-09-03T14:21:43.954Z,13.30
2018-09-03T14:24:11.393Z,12.53
2018-09-03T14:26:38.833Z,12.53
2018-09-03T14:29:06.296Z,11.10
2018-09-03T14:31:33.704Z,10.43
2018-09-03T14:34:01.170Z,10.40
2018-09-03T14:36:28.589Z,10.63
2018-09-03T14:38:56.009Z,9.13
2018-09-03T14:41:23.480Z,10.23
2018-09-03T14:43:50.933Z,10.30
2018-09-03T14:46:18.400Z,10.60
2018-09-03T14:48:45.809Z,9.70
2018-09-03T14:51:13.438Z,9.83
2018-09-03T14:53:40.862Z,10.03
2018-09-03T14:56:08.333Z,11.13
2018-09-03T14:58:35.725Z,10.70
2018-09-03T15:01:03.156Z,10.70
2018-09-03T15:03:30.578Z,10.77
2018-09-03T15:05:58.020Z,10.60
2018-09-03T15:08:25.507Z,11.30
2018-09-03T15:10:52.916Z,10.40
2018-09-03T15:13:20.352Z,10.63
2018-09-03T15:15:47.792Z,11.07
2018-09-03T15:18:15.226Z,13.20
2018-09-03T15:20:42.734Z,13.37
2018-09-03T15:23:10.077Z,12.10
2018-09-03T15:25:37.536Z,11.13
2018-09-03T15:28:04.956Z,11.77
2018-09-03T15:30:32.404Z,11.83
2018-09-03T15:32:59.824Z,11.37
2018-09-03T15:35:27.372Z,10.73
2018-09-03T15:37:54.825Z,11.73
2018-09-03T15:40:22.313Z,12.57
2018-09-03T15:42:49.821Z,13.10
2018-09-03T15:45:17.185Z,11.40
2018-09-03T15:47:44.635Z,12.05
2018-09-03T15:50:12.066Z,11.73
2018-09-03T15:52:39.520Z,13.90
2018-09-03T15:55:06.933Z,13.10
2018-09-03T15:57:34.396Z,14.23
2018-09-03T16:00:01.815Z,13.37
2018-09-03T16:02:29.253Z,13.37
2018-09-03T16:04:56.792Z,13.97
2018-09-03T16:07:24.223Z,13.23
2018-09-03T16:09:51.670Z,12.53
2018-09-03T16:12:19.196Z,13.33
2018-09-03T16:14:46.661Z,14.30
2018-09-03T16:17:14.080Z,13.30
2018-09-03T16:19:41.523Z,13.53
2018-09-03T16:22:08.946Z,14.13
2018-09-03T16:24:36.371Z,14.37
2018-09-03T16:27:03.828Z,14.47
2018-09-03T16:29:31.276Z,14.30
2018-09-03T16:31:58.732Z,15.40
2018-09-03T16:34:26.159Z,17.33
2018-09-03T16:36:53.590Z,16.97
2018-09-03T16:39:21.035Z,16.83
2018-09-03T16:41:48.487Z,16.57
2018-09-03T16:44:15.950Z,19.27
2018-09-03T16:46:43.411Z,18.23
2018-09-03T16:49:10.953Z,17.23
2018-09-03T16:51:38.266Z,18.70
2018-09-03T16:54:05.707Z,18.83
2018-09-03T16:56:33.120Z,18.23
2018-09-03T16:59:00.557Z,17.80
2018-09-03T17:01:28.265Z,16.77
2018-09-03T17:03:55.433Z,17.73
2018-09-03T17:06:22.880Z,16.33
2018-09-03T17:08:50.297Z,17.03
2018-09-03T17:11:17.741Z,16.33
2018-09-03T17:13:45.168Z,15.60
2018-09-03T17:16:12.611Z,17.43
2018-09-03T17:18:40.062Z,16.80
2018-09-03T17:21:07.509Z,16.90
2018-09-03T17:23:34.952Z,16.53
2018-09-03T17:26:02.379Z,17.47
2018-09-03T17:28:29.830Z,15.70
2018-09-03T17:30:57.248Z,16.63
2018-09-03T17:33:24.684Z,15.87
2018-09-03T17:35:52.140Z,16.27
2018-09-03T17:38:19.666Z,16.10
2018-09-03T17:40:47.122Z,15.27
2018-09-03T17:43:14.524Z,16.50
2018-09-03T17:45:41.977Z,16.50
2018-09-03T17:48:09.357Z,14.70
2018-09-03T17:50:36.795Z,16.00
2018-09-03T17:53:04.251Z,14.17
2018-09-03T17:55:31.673Z,15.47
2018-09-03T17:57:59.111Z,14.33
2018-09-03T18:00:26.536Z,14.40
2018-09-03T18:02:53.982Z,14.27
2018-09-03T18:05:21.473Z,14.67
2018-09-03T18:07:48.856Z,14.63
2018-09-03T18:10:16.316Z,13.40
2018-09-03T18:12:43.757Z,15.17
2018-09-03T18:15:11.201Z,14.70
2018-09-03T18:17:38.614Z,13.00
2018-09-03T18:20:06.022Z,14.57
2018-09-03T18:22:33.461Z,15.33
2018-09-03T18:25:00.867Z,14.07
2018-09-03T18:27:28.312Z,14.87
2018-09-03T18:29:55.718Z,15.40
2018-09-03T18:32:23.178Z,14.80
2018-09-03T18:34:50.604Z,14.50
2018-09-03T18:37:18.013Z,16.43
2018-09-03T18:39:45.455Z,16.43
2018-09-03T18:42:12.866Z,17.97
2018-09-03T18:44:40.280Z,17.70
2018-09-03T18:47:07.723Z,18.83
2018-09-03T18:49:35.165Z,18.63
2018-09-03T18:52:02.569Z,18.93
2018-09-03T18:54:29.999Z,18.70
2018-09-03T18:56:57.410Z,20.13
2018-09-03T18:59:24.854Z,21.30
2018-09-03T19:01:52.289Z,20.50
2018-09-03T19:04:19.704Z,19.43
2018-09-03T19:06:47.114Z,22.27
2018-09-03T19:09:14.558Z,20.70
2018-09-03T19:11:41.981Z,21.43
2018-09-03T19:14:09.394Z,20.37
2018-09-03T19:16:36.820Z,21.37
2018-09-03T19:19:04.248Z,21.80
2018-09-03T19:21:31.649Z,23.03
2018-09-03T19:23:59.087Z,22.73
2018-09-03T19:26:26.522Z,21.10
2018-09-03T19:28:53.947Z,22.60
2018-09-03T19:31:21.374Z,23.00
2018-09-03T19:33:48.807Z,21.87
2018-09-03T19:36:16.263Z,21.70
2018-09-03T19:38:43.676Z,22.43
2018-09-03T19:41:11.217Z,22.30
2018-09-03T19:43:38.660Z,23.23
2018-09-03T19:46:06.080Z,23.47
2018-09-03T19:48:33.553Z,22.63
2018-09-03T19:51:00.934Z,22.37
2018-09-03T19:53:28.370Z,22.50
2018-09-03T19:55:55.800Z,22.30
2018-09-03T19:58:23.242Z,24.27
2018-09-03T20:00:50.689Z,24.43
2018-09-03T20:03:18.169Z,25.27
2018-09-03T20:05:45.581Z,23.53
2018-09-03T20:08:13.016Z,25.07
2018-09-03T20:10:40.537Z,25.80
2018-09-03T20:13:07.969Z,22.60
2018-09-03T20:15:35.467Z,24.63
2018-09-03T20:18:02.899Z,24.83
2018-09-03T20:20:30.320Z,24.87
2018-09-03T20:22:57.788Z,26.70
2018-09-03T20:25:25.201Z,26.80
2018-09-03T20:27:52.642Z,26.07
2018-09-03T20:30:20.118Z,26.50
2018-09-03T20:32:47.611Z,27.57
2018-09-03T20:35:15.068Z,28.40
2018-09-03T20:37:42.501Z,28.80
2018-09-03T20:40:10.151Z,28.07
2018-09-03T20:42:37.611Z,25.20
2018-09-03T20:45:04.991Z,27.60
2018-09-03T20:47:32.439Z,29.13
2018-09-03T20:49:59.871Z,29.63
2018-09-03T20:52:27.281Z,28.53
2018-09-03T20:54:54.907Z,26.73
2018-09-03T20:57:22.349Z,29.67
2018-09-03T20:59:49.818Z,26.93
2018-09-03T21:02:17.276Z,27.00
2018-09-03T21:04:44.689Z,28.07
2018-09-03T21:07:12.122Z,30.77
2018-09-03T21:09:39.588Z,31.07
2018-09-03T21:12:07.137Z,28.00
2018-09-03T21:14:34.503Z,30.80
2018-09-03T21:17:01.914Z,32.50
2018-09-03T21:19:29.411Z,30.73
2018-09-03T21:21:56.894Z,33.20
2018-09-03T21:24:24.284Z,31.13
2018-09-03T21:26:51.739Z,31.13
2018-09-03T21:29:19.191Z,35.57
2018-09-03T21:31:46.608Z,33.30
2018-09-03T21:34:14.086Z,34.27
2018-09-03T21:36:41.494Z,33.93
2018-09-03T21:39:09.019Z,36.17
2018-09-03T21:41:36.369Z,39.50
2018-09-03T21:44:03.795Z,38.33
2018-09-03T21:46:31.238Z,34.57
2018-09-03T21:48:58.658Z,37.57
2018-09-03T21:51:26.096Z,38.53
2018-09-03T21:53:53.507Z,38.00
2018-09-03T21:56:20.961Z,39.80
2018-09-03T21:58:48.421Z,39.20
2018-09-03T22:01:15.851Z,39.97
2018-09-03T22:03:43.288Z,37.57
2018-09-03T22:06:10.700Z,38.33
2018-09-03T22:08:38.168Z,39.90
2018-09-03T22:11:05.582Z,40.97
2018-09-03T22:13:33.019Z,39.03
2018-09-03T22:16:00.440Z,36.83
2018-09-03T22:18:27.883Z,35.27
2018-09-03T22:20:55.319Z,41.43
2018-09-03T22:23:22.749Z,35.87
2018-09-03T22:25:50.219Z,39.37
2018-09-03T22:28:17.624Z,41.30
2018-09-03T22:30:45.066Z,38.87
2018-09-03T22:33:12.495Z,40.23
2018-09-03T22:35:39.932Z,33.27
2018-09-03T22:38:07.344Z,40.20
2018-09-03T22:40:34.778Z,39.90
2018-09-03T22:43:02.224Z,39.93
2018-09-03T22:45:29.693Z,39.73
2018-09-03T22:47:57.122Z,41.77
2018-09-03T22:50:24.537Z,41.17
2018-09-03T22:52:51.944Z,40.30
2018-09-03T22:55:19.400Z,43.03
2018-09-03T22:57:46.793Z,40.40
2018-09-03T23:00:14.209Z,41.77
2018-09-03T23:02:41.641Z,43.50
2018-09-03T23:05:09.087Z,42.83
2018-09-03T23:07:36.642Z,42.60
2018-09-03T23:10:04.049Z,40.60
2018-09-03T23:12:31.482Z,40.60
2018-09-03T23:14:58.890Z,44.63
2018-09-03T23:17:26.326Z,40.97
2018-09-03T23:19:53.732Z,42.43
2018-09-03T23:22:21.164Z,37.50
2018-09-03T23:24:48.574Z,42.07
2018-09-03T23:27:16.011Z,41.07
2018-09-03T23:29:43.429Z,42.77
2018-09-03T23:32:10.857Z,42.17
2018-09-03T23:34:38.292Z,44.70
2018-09-03T23:37:05.719Z,44.13
2018-09-03T23:39:33.149Z,44.83
2018-09-03T23:42:00.563Z,45.33
2018-09-03T23:44:28.004Z,46.20
2018-09-03T23:46:55.421Z,46.13
2018-09-03T23:49:22.859Z,46.87
2018-09-03T23:51:50.268Z,45.23
2018-09-03T23:54:17.845Z,43.13
2018-09-03T23:56:45.258Z,44.30
2018-09-03T23:59:12.688Z,45.63
